createdAt,value
2023-02-18T00:01:26.862Z,0.40
2023-02-18T00:03:54.856Z,0.63
2023-02-18T00:06:25.246Z,0.70
2023-02-18T00:08:55.403Z,0.37
2023-02-18T00:11:23.520Z,0.60
2023-02-18T00:13:52.853Z,0.50
2023-02-18T00:16:21.826Z,0.80
2023-02-18T00:18:49.792Z,0.60
2023-02-18T00:21:17.994Z,0.50
2023-02-18T00:23:46.289Z,0.63
2023-02-18T00:26:17.919Z,0.40
2023-02-18T00:28:48.460Z,0.60
2023-02-18T00:31:18.711Z,0.73
2023-02-18T00:33:46.776Z,0.47
2023-02-18T00:36:18.525Z,0.50
2023-02-18T00:38:47.282Z,0.60
2023-02-18T00:41:17.032Z,0.60
2023-02-18T00:43:45.289Z,0.60
2023-02-18T00:46:13.627Z,0.83
2023-02-18T00:48:42.321Z,0.60
2023-02-18T00:51:12.281Z,0.70
2023-02-18T00:53:40.799Z,0.80
2023-02-18T00:56:09.718Z,0.80
2023-02-18T00:58:39.876Z,0.90
2023-02-18T01:01:09.671Z,0.73
2023-02-18T01:03:38.019Z,0.70
2023-02-18T01:06:07.727Z,0.80
2023-02-18T01:08:37.162Z,0.80
2023-02-18T01:11:06.471Z,0.70
2023-02-18T01:13:34.771Z,0.60
2023-02-18T01:16:04.333Z,0.70
2023-02-18T01:18:32.796Z,0.70
2023-02-18T01:21:01.148Z,0.97
2023-02-18T01:23:29.500Z,0.80
2023-02-18T01:25:58.629Z,0.77
2023-02-18T01:28:26.810Z,0.87
2023-02-18T01:30:55.087Z,0.80
2023-02-18T01:33:24.966Z,0.63
2023-02-18T01:35:53.981Z,1.20
2023-02-18T01:38:25.112Z,0.90
2023-02-18T01:40:53.596Z,1.03
2023-02-18T01:43:23.024Z,0.93
2023-02-18T01:45:56.134Z,0.90
2023-02-18T01:48:29.840Z,0.93
2023-02-18T01:51:01.272Z,1.10
2023-02-18T01:53:34.366Z,1.07
2023-02-18T01:56:07.757Z,1.30
2023-02-18T01:58:36.427Z,1.00
2023-02-18T02:01:05.400Z,1.00
2023-02-18T02:03:34.666Z,1.27
2023-02-18T02:06:02.690Z,1.30
2023-02-18T02:08:31.362Z,1.00
2023-02-18T02:11:21.377Z,1.20
2023-02-18T02:14:13.747Z,1.20
2023-02-18T02:16:51.634Z,1.07
2023-02-18T02:19:47.286Z,1.00
2023-02-18T02:22:48.802Z,1.20
2023-02-18T02:25:29.309Z,1.27
2023-02-18T02:28:31.329Z,1.07
2023-02-18T02:31:39.133Z,1.17
2023-02-18T02:34:48.747Z,1.17
2023-02-18T02:37:25.448Z,1.40
2023-02-18T02:40:02.591Z,1.30
2023-02-18T02:42:46.272Z,1.30
2023-02-18T02:45:22.745Z,1.20
2023-02-18T02:47:55.107Z,1.03
2023-02-18T02:50:30.199Z,1.17
2023-02-18T02:53:03.372Z,1.17
2023-02-18T02:55:31.346Z,1.30
2023-02-18T02:57:59.413Z,1.30
2023-02-18T03:00:46.615Z,1.17
2023-02-18T03:03:34.057Z,1.00
2023-02-18T03:06:24.313Z,0.90
2023-02-18T03:09:00.048Z,1.00
2023-02-18T03:11:30.695Z,0.90
2023-02-18T03:14:08.477Z,1.07
2023-02-18T03:16:50.428Z,0.93
2023-02-18T03:19:24.025Z,1.00
2023-02-18T03:22:01.905Z,0.90
2023-02-18T03:24:32.838Z,1.00
2023-02-18T03:27:08.266Z,0.90
2023-02-18T03:29:38.025Z,1.00
2023-02-18T03:32:09.576Z,0.97
2023-02-18T03:34:42.496Z,1.30
2023-02-18T03:37:13.421Z,0.90
2023-02-18T03:39:45.338Z,0.90
2023-02-18T03:42:13.831Z,1.30
2023-02-18T03:44:41.699Z,1.10
2023-02-18T03:47:09.603Z,1.10
2023-02-18T03:49:37.482Z,1.10
2023-02-18T03:52:06.173Z,1.10
2023-02-18T03:54:35.421Z,1.20
2023-02-18T03:57:03.258Z,1.10
2023-02-18T03:59:31.090Z,1.20
2023-02-18T04:01:58.991Z,1.27
2023-02-18T04:04:26.853Z,1.20
2023-02-18T04:06:54.644Z,1.13
2023-02-18T04:09:22.715Z,1.20
2023-02-18T04:11:51.983Z,1.10
2023-02-18T04:14:20.813Z,1.20
2023-02-18T04:16:48.871Z,1.53
2023-02-18T04:19:16.741Z,1.27
2023-02-18T04:21:44.589Z,1.40
2023-02-18T04:24:12.493Z,1.10
2023-02-18T04:26:40.537Z,1.40
2023-02-18T04:29:09.755Z,1.30
2023-02-18T04:31:37.960Z,1.30
2023-02-18T04:34:05.908Z,1.60
2023-02-18T04:36:33.760Z,1.37
2023-02-18T04:39:01.686Z,1.30
2023-02-18T04:41:29.976Z,1.53
2023-02-18T04:43:59.661Z,1.03
2023-02-18T04:46:29.420Z,1.00
2023-02-18T04:48:57.275Z,1.50
2023-02-18T04:51:25.301Z,1.07
2023-02-18T04:53:53.124Z,1.03
2023-02-18T04:56:20.883Z,0.90
2023-02-18T04:58:48.838Z,1.10
2023-02-18T05:01:16.936Z,1.10
2023-02-18T05:03:47.332Z,1.30
2023-02-18T05:06:15.257Z,1.20
2023-02-18T05:08:43.087Z,1.40
2023-02-18T05:11:11.035Z,1.80
2023-02-18T05:13:39.984Z,1.60
2023-02-18T05:16:08.471Z,1.40
2023-02-18T05:18:36.620Z,1.23
2023-02-18T05:21:06.294Z,1.37
2023-02-18T05:23:34.352Z,1.33
2023-02-18T05:26:02.263Z,1.53
2023-02-18T05:28:30.129Z,5.77
2023-02-18T05:30:58.676Z,2.23
2023-02-18T05:33:26.759Z,1.30
2023-02-18T05:35:54.536Z,0.93
2023-02-18T05:38:23.741Z,3.97
2023-02-18T05:40:51.797Z,1.40
2023-02-18T05:43:19.710Z,1.17
2023-02-18T05:45:47.517Z,1.33
2023-02-18T05:48:15.418Z,1.30
2023-02-18T05:50:43.443Z,1.00
2023-02-18T05:53:11.260Z,1.60
2023-02-18T05:55:40.488Z,1.10
2023-02-18T05:58:08.276Z,1.20
2023-02-18T06:00:36.090Z,1.00
2023-02-18T06:03:04.056Z,1.10
2023-02-18T06:05:31.974Z,1.00
2023-02-18T06:07:59.879Z,1.13
2023-02-18T06:10:27.861Z,1.27
2023-02-18T06:12:57.103Z,1.13
2023-02-18T06:15:24.943Z,1.13
2023-02-18T06:17:52.815Z,1.80
2023-02-18T06:20:21.104Z,1.80
2023-02-18T06:22:48.976Z,1.13
2023-02-18T06:25:17.006Z,1.50
2023-02-18T06:27:44.865Z,1.60
2023-02-18T06:30:15.059Z,1.47
2023-02-18T06:32:42.945Z,1.60
2023-02-18T06:35:10.825Z,1.30
2023-02-18T06:37:38.677Z,1.27
2023-02-18T06:40:08.180Z,1.17
2023-02-18T06:42:35.980Z,1.27
2023-02-18T06:45:03.868Z,2.60
2023-02-18T06:47:33.233Z,3.33
2023-02-18T06:50:01.083Z,2.50
2023-02-18T06:52:33.357Z,2.63
2023-02-18T06:55:01.378Z,2.73
2023-02-18T06:57:29.296Z,2.60
2023-02-18T06:59:57.124Z,2.60
2023-02-18T07:02:25.339Z,1.60
2023-02-18T07:04:54.758Z,1.50
2023-02-18T07:07:22.619Z,1.33
2023-02-18T07:09:51.339Z,1.70
2023-02-18T07:12:19.442Z,3.50
2023-02-18T07:14:48.256Z,1.37
2023-02-18T07:17:17.217Z,1.40
2023-02-18T07:19:46.192Z,1.80
2023-02-18T07:22:15.841Z,2.40
2023-02-18T07:24:44.110Z,2.00
2023-02-18T07:27:11.956Z,2.00
2023-02-18T07:29:40.375Z,2.40
2023-02-18T07:32:08.395Z,1.90
2023-02-18T07:34:36.290Z,1.70
2023-02-18T07:37:04.829Z,1.70
2023-02-18T07:39:34.066Z,2.00
2023-02-18T07:42:01.910Z,14.87
2023-02-18T07:44:33.544Z,7.43
2023-02-18T07:47:01.937Z,2.00
2023-02-18T07:49:29.991Z,1.57
2023-02-18T07:51:57.877Z,1.80
2023-02-18T07:54:26.267Z,1.83
2023-02-18T07:56:55.864Z,2.50
2023-02-18T07:59:23.689Z,2.30
2023-02-18T08:01:51.676Z,2.00
2023-02-18T08:04:19.553Z,3.37
2023-02-18T08:06:49.726Z,2.23
2023-02-18T08:09:18.343Z,1.70
2023-02-18T08:11:46.204Z,2.40
2023-02-18T08:14:15.450Z,3.60
2023-02-18T08:16:43.353Z,4.97
2023-02-18T08:19:11.250Z,1.83
2023-02-18T08:21:39.141Z,2.10
2023-02-18T08:24:08.244Z,8.73
2023-02-18T08:26:36.129Z,3.00
2023-02-18T08:29:04.592Z,2.00
2023-02-18T08:31:34.508Z,1.73
2023-02-18T08:34:03.728Z,3.37
2023-02-18T08:36:32.126Z,5.43
2023-02-18T08:39:01.133Z,3.83
2023-02-18T08:41:29.637Z,2.07
2023-02-18T08:43:57.797Z,3.10
2023-02-18T08:46:35.283Z,1.87
2023-02-18T08:49:05.741Z,1.30
2023-02-18T08:51:33.676Z,1.60
2023-02-18T08:54:01.672Z,0.83
2023-02-18T08:56:29.960Z,1.10
2023-02-18T08:58:57.810Z,1.63
2023-02-18T09:01:25.690Z,1.00
2023-02-18T09:03:53.656Z,1.00
2023-02-18T09:06:22.977Z,0.90
2023-02-18T09:08:51.116Z,0.93
2023-02-18T09:11:19.619Z,1.10
2023-02-18T09:13:47.848Z,1.00
2023-02-18T09:16:18.281Z,1.10
2023-02-18T09:18:46.765Z,0.87
2023-02-18T09:21:15.907Z,0.97
2023-02-18T09:23:45.753Z,1.00
2023-02-18T09:26:16.645Z,1.33
2023-02-18T09:28:44.906Z,1.10
2023-02-18T09:31:16.273Z,0.90
2023-02-18T09:33:47.444Z,1.27
2023-02-18T09:36:15.949Z,0.80
2023-02-18T09:38:45.740Z,0.93
2023-02-18T09:41:22.029Z,1.10
2023-02-18T09:43:54.895Z,1.03
2023-02-18T09:46:26.361Z,1.87
2023-02-18T09:48:54.320Z,1.20
2023-02-18T09:51:22.394Z,1.20
2023-02-18T09:53:51.637Z,1.00
2023-02-18T09:56:24.916Z,0.90
2023-02-18T09:58:54.043Z,0.80
2023-02-18T10:01:32.061Z,0.87
2023-02-18T10:04:03.197Z,0.97
2023-02-18T10:06:33.308Z,1.70
2023-02-18T10:09:07.765Z,1.30
2023-02-18T10:11:41.307Z,1.30
2023-02-18T10:14:13.350Z,1.77
2023-02-18T10:16:41.292Z,1.13
2023-02-18T10:19:21.712Z,1.53
2023-02-18T10:21:51.697Z,1.00
2023-02-18T10:24:29.239Z,1.50
2023-02-18T10:26:57.504Z,1.30
2023-02-18T10:29:26.237Z,1.20
2023-02-18T10:31:57.977Z,1.20
2023-02-18T10:34:37.217Z,0.80
2023-02-18T10:37:15.363Z,0.87
2023-02-18T10:39:55.094Z,0.67
2023-02-18T10:42:34.679Z,0.57
2023-02-18T10:45:13.741Z,0.97
2023-02-18T10:47:48.475Z,0.80
2023-02-18T10:50:26.451Z,0.80
2023-02-18T10:52:58.588Z,0.70
2023-02-18T10:55:37.705Z,0.90
2023-02-18T10:58:05.763Z,0.60
2023-02-18T11:00:37.204Z,0.57
2023-02-18T11:03:16.526Z,0.50
2023-02-18T11:05:45.169Z,0.50
2023-02-18T11:08:19.571Z,0.60
2023-02-18T11:10:50.164Z,0.70
2023-02-18T11:13:24.720Z,0.90
2023-02-18T11:15:58.288Z,0.83
2023-02-18T11:18:40.232Z,0.70
2023-02-18T11:21:22.024Z,0.77
2023-02-18T11:23:52.263Z,1.60
2023-02-18T11:26:28.934Z,0.87
2023-02-18T11:29:02.119Z,1.07
2023-02-18T11:31:42.688Z,0.50
2023-02-18T11:34:17.572Z,0.67
2023-02-18T11:36:46.042Z,0.60
2023-02-18T11:39:22.265Z,0.97
2023-02-18T11:41:58.021Z,0.80
2023-02-18T11:44:30.769Z,0.80
2023-02-18T11:47:02.025Z,0.57
2023-02-18T11:49:30.980Z,0.57
2023-02-18T11:52:06.997Z,0.70
2023-02-18T11:54:36.097Z,0.97
2023-02-18T11:57:07.814Z,0.77
2023-02-18T11:59:38.433Z,0.70
2023-02-18T12:02:27.725Z,0.70
2023-02-18T12:05:02.547Z,1.40
2023-02-18T12:07:44.264Z,2.00
2023-02-18T12:10:16.581Z,0.80
2023-02-18T12:12:49.643Z,1.37
2023-02-18T12:15:22.337Z,0.80
2023-02-18T12:18:04.396Z,0.90
2023-02-18T12:20:55.804Z,0.93
2023-02-18T12:23:34.521Z,0.70
2023-02-18T12:26:09.300Z,0.93
2023-02-18T12:28:59.642Z,1.17
2023-02-18T12:31:46.289Z,1.27
2023-02-18T12:34:35.462Z,1.07
2023-02-18T12:37:15.922Z,0.90
2023-02-18T12:40:01.432Z,1.17
2023-02-18T12:42:43.231Z,1.20
2023-02-18T12:45:33.083Z,3.80
2023-02-18T12:48:16.811Z,2.43
2023-02-18T12:51:10.124Z,1.57
2023-02-18T12:53:54.121Z,1.27
2023-02-18T12:56:57.284Z,1.13
2023-02-18T12:59:47.750Z,1.10
2023-02-18T13:02:32.064Z,1.17
2023-02-18T13:05:11.516Z,1.70
2023-02-18T13:07:52.633Z,1.33
2023-02-18T13:10:38.053Z,1.50
2023-02-18T13:13:12.712Z,1.30
2023-02-18T13:15:44.254Z,1.53
2023-02-18T13:18:19.614Z,1.60
2023-02-18T13:20:51.994Z,1.30
2023-02-18T13:23:23.633Z,1.47
2023-02-18T13:25:58.946Z,2.30
2023-02-18T13:28:32.668Z,1.90
2023-02-18T13:31:15.033Z,2.77
2023-02-18T13:33:54.408Z,1.80
2023-02-18T13:36:34.975Z,2.63
2023-02-18T13:39:07.095Z,2.00
2023-02-18T13:41:39.394Z,2.07
2023-02-18T13:44:31.337Z,1.73
2023-02-18T13:47:00.552Z,1.30
2023-02-18T13:49:38.917Z,1.50
2023-02-18T13:52:08.487Z,1.40
2023-02-18T13:54:43.152Z,1.20
2023-02-18T13:57:17.788Z,1.40
2023-02-18T13:59:47.840Z,1.30
2023-02-18T14:02:33.984Z,1.50
2023-02-18T14:05:22.421Z,1.47
2023-02-18T14:07:53.465Z,1.20
2023-02-18T14:10:36.360Z,1.40
2023-02-18T14:13:23.711Z,1.23
2023-02-18T14:15:55.989Z,1.20
2023-02-18T14:18:34.857Z,1.20
2023-02-18T14:21:23.196Z,1.23
2023-02-18T14:24:03.199Z,1.20
2023-02-18T14:26:34.297Z,1.33
2023-02-18T14:29:07.682Z,1.30
2023-02-18T14:31:44.684Z,1.30
2023-02-18T14:34:39.564Z,1.30
2023-02-18T14:37:55.371Z,1.30
2023-02-18T14:40:38.325Z,1.43
2023-02-18T14:43:13.923Z,1.37
2023-02-18T14:46:05.094Z,1.50
2023-02-18T14:49:07.350Z,1.60
2023-02-18T14:51:36.236Z,1.20
2023-02-18T14:54:07.476Z,1.50
2023-02-18T14:56:51.391Z,1.40
2023-02-18T14:59:20.905Z,1.50
2023-02-18T15:01:49.248Z,1.40
2023-02-18T15:04:17.476Z,1.40
2023-02-18T15:06:45.927Z,1.10
2023-02-18T15:09:16.553Z,1.07
2023-02-18T15:11:48.658Z,1.93
2023-02-18T15:14:20.263Z,2.30
2023-02-18T15:16:50.104Z,3.70
2023-02-18T15:19:20.897Z,8.40
2023-02-18T15:21:51.153Z,3.80
2023-02-18T15:24:25.635Z,3.37
2023-02-18T15:26:57.484Z,1.47
2023-02-18T15:29:27.222Z,1.47
2023-02-18T15:31:58.003Z,1.20
2023-02-18T15:34:34.778Z,1.10
2023-02-18T15:37:04.720Z,1.50
2023-02-18T15:39:33.565Z,1.43
2023-02-18T15:42:08.434Z,1.43
2023-02-18T15:44:37.838Z,1.83
2023-02-18T15:47:09.984Z,1.23
2023-02-18T15:49:41.084Z,1.17
2023-02-18T15:52:10.015Z,1.40
2023-02-18T15:54:41.731Z,1.27
2023-02-18T15:57:15.503Z,1.30
2023-02-18T15:59:48.269Z,1.37
2023-02-18T16:02:19.840Z,1.50
2023-02-18T16:04:52.729Z,0.97
2023-02-18T16:07:28.946Z,1.93
2023-02-18T16:10:19.520Z,1.40
2023-02-18T16:12:52.837Z,1.47
2023-02-18T16:15:26.645Z,1.60
2023-02-18T16:17:55.960Z,1.60
2023-02-18T16:20:30.536Z,2.10
2023-02-18T16:23:02.284Z,2.13
2023-02-18T16:25:43.805Z,1.70
2023-02-18T16:28:16.878Z,1.70
2023-02-18T16:30:46.529Z,1.43
2023-02-18T16:33:14.829Z,1.77
2023-02-18T16:35:49.894Z,1.50
2023-02-18T16:38:19.276Z,2.40
2023-02-18T16:40:47.337Z,1.67
2023-02-18T16:43:19.658Z,1.63
2023-02-18T16:45:50.789Z,1.53
2023-02-18T16:48:25.572Z,1.40
2023-02-18T16:50:54.232Z,1.50
2023-02-18T16:53:22.455Z,1.50
2023-02-18T16:55:51.985Z,1.60
2023-02-18T16:58:22.015Z,2.40
2023-02-18T17:00:52.823Z,1.90
2023-02-18T17:03:21.783Z,1.47
2023-02-18T17:05:49.655Z,1.60
2023-02-18T17:08:20.745Z,1.73
2023-02-18T17:10:50.424Z,1.80
2023-02-18T17:13:19.662Z,1.40
2023-02-18T17:15:51.739Z,1.90
2023-02-18T17:18:19.861Z,2.10
2023-02-18T17:20:49.621Z,2.00
2023-02-18T17:23:21.143Z,1.97
2023-02-18T17:25:50.289Z,2.00
2023-02-18T17:28:19.416Z,2.90
2023-02-18T17:30:57.262Z,4.03
2023-02-18T17:33:26.379Z,4.83
2023-02-18T17:35:54.239Z,6.80
2023-02-18T17:38:22.132Z,5.83
2023-02-18T17:40:50.676Z,5.93
2023-02-18T17:43:19.677Z,4.20
2023-02-18T17:45:51.534Z,7.03
2023-02-18T17:48:20.048Z,10.90
2023-02-18T17:50:48.220Z,6.63
2023-02-18T17:53:16.780Z,6.83
2023-02-18T17:55:45.928Z,4.30
2023-02-18T17:58:15.506Z,2.80
2023-02-18T18:00:46.194Z,11.27
2023-02-18T18:03:16.156Z,5.20
2023-02-18T18:05:48.854Z,3.80
2023-02-18T18:08:17.215Z,1.93
2023-02-18T18:10:50.386Z,2.80
2023-02-18T18:13:22.450Z,2.60
2023-02-18T18:15:50.960Z,2.37
2023-02-18T18:18:20.614Z,7.40
2023-02-18T18:20:51.674Z,11.43
2023-02-18T18:23:21.599Z,4.83
2023-02-18T18:25:51.147Z,12.20
2023-02-18T18:28:19.024Z,16.80
2023-02-18T18:30:49.421Z,26.87
2023-02-18T18:33:19.373Z,8.60
2023-02-18T18:35:51.867Z,7.53
2023-02-18T18:38:21.866Z,9.70
2023-02-18T18:40:50.523Z,48.07
2023-02-18T18:43:20.250Z,9.10
2023-02-18T18:45:48.815Z,10.87
2023-02-18T18:48:17.571Z,10.57
2023-02-18T18:50:45.648Z,4.27
2023-02-18T18:53:20.359Z,3.87
2023-02-18T18:55:49.600Z,4.87
2023-02-18T18:58:20.947Z,2.93
2023-02-18T19:00:51.525Z,2.93
2023-02-18T19:03:19.719Z,3.40
2023-02-18T19:05:48.772Z,3.50
2023-02-18T19:08:20.218Z,4.70
2023-02-18T19:10:49.744Z,3.50
2023-02-18T19:13:20.410Z,4.87
2023-02-18T19:15:49.458Z,3.27
2023-02-18T19:18:19.122Z,3.83
2023-02-18T19:20:48.307Z,3.50
2023-02-18T19:23:17.639Z,2.80
2023-02-18T19:25:45.609Z,3.80
2023-02-18T19:28:14.631Z,10.40
2023-02-18T19:30:43.452Z,9.67
2023-02-18T19:33:13.835Z,18.70
2023-02-18T19:35:43.568Z,5.27
2023-02-18T19:38:13.323Z,3.20
2023-02-18T19:40:44.021Z,4.03
2023-02-18T19:43:12.381Z,3.43
2023-02-18T19:45:43.020Z,4.83
2023-02-18T19:48:11.831Z,5.87
2023-02-18T19:50:41.240Z,1.73
2023-02-18T19:53:10.427Z,2.20
2023-02-18T19:55:38.464Z,3.37
2023-02-18T19:58:08.210Z,7.47
2023-02-18T20:00:36.322Z,6.23
2023-02-18T20:03:04.195Z,3.17
2023-02-18T20:05:31.957Z,3.37
2023-02-18T20:07:59.750Z,3.10
2023-02-18T20:10:27.907Z,2.00
2023-02-18T20:12:55.871Z,2.87
2023-02-18T20:15:25.109Z,3.03
2023-02-18T20:17:53.000Z,3.77
2023-02-18T20:20:21.698Z,10.30
2023-02-18T20:22:49.570Z,22.83
2023-02-18T20:25:17.545Z,10.43
2023-02-18T20:27:59.953Z,27.37
2023-02-18T20:30:30.442Z,30.67
2023-02-18T20:32:58.342Z,26.93
2023-02-18T20:35:26.736Z,8.20
2023-02-18T20:37:54.564Z,10.93
2023-02-18T20:40:22.444Z,14.53
2023-02-18T20:42:50.624Z,9.53
2023-02-18T20:45:18.727Z,9.97
2023-02-18T20:47:48.043Z,7.47
2023-02-18T20:50:16.158Z,12.03
2023-02-18T20:52:44.107Z,7.37
2023-02-18T20:55:11.947Z,6.67
2023-02-18T20:57:39.827Z,13.03
2023-02-18T21:00:08.873Z,14.67
2023-02-18T21:02:36.832Z,6.30
2023-02-18T21:05:06.930Z,7.77
2023-02-18T21:07:34.859Z,13.87
2023-02-18T21:10:04.103Z,11.07
2023-02-18T21:12:31.980Z,10.20
2023-02-18T21:14:59.913Z,13.27
2023-02-18T21:17:27.753Z,10.33
2023-02-18T21:19:55.652Z,11.77
2023-02-18T21:22:24.925Z,23.63
2023-02-18T21:24:52.819Z,12.67
2023-02-18T21:27:20.797Z,4.60
2023-02-18T21:29:48.637Z,4.43
2023-02-18T21:32:16.541Z,5.47
2023-02-18T21:34:44.486Z,4.90
2023-02-18T21:37:12.365Z,5.23
2023-02-18T21:39:41.780Z,8.27
2023-02-18T21:42:10.638Z,9.57
2023-02-18T21:44:42.973Z,6.80
2023-02-18T21:47:11.839Z,3.10
2023-02-18T21:49:39.674Z,3.30
2023-02-18T21:52:09.432Z,3.33
2023-02-18T21:54:39.752Z,2.73
2023-02-18T21:57:12.360Z,3.00
2023-02-18T21:59:41.053Z,2.97
2023-02-18T22:02:15.737Z,3.03
2023-02-18T22:04:43.789Z,3.40
2023-02-18T22:07:11.739Z,2.83
2023-02-18T22:09:40.097Z,2.70
2023-02-18T22:12:10.523Z,2.30
2023-02-18T22:14:38.552Z,2.60
2023-02-18T22:17:06.857Z,2.43
2023-02-18T22:19:35.178Z,3.00
2023-02-18T22:22:03.395Z,2.60
2023-02-18T22:24:31.562Z,3.60
2023-02-18T22:27:01.425Z,3.83
2023-02-18T22:29:32.383Z,3.77
2023-02-18T22:32:00.670Z,8.53
2023-02-18T22:34:28.734Z,5.67
2023-02-18T22:36:56.654Z,6.57
2023-02-18T22:39:24.598Z,6.17
2023-02-18T22:41:52.457Z,3.50
2023-02-18T22:44:20.500Z,2.83
2023-02-18T22:46:49.819Z,3.30
2023-02-18T22:49:17.885Z,2.90
2023-02-18T22:51:45.861Z,2.20
2023-02-18T22:54:15.434Z,2.80
2023-02-18T22:56:43.989Z,2.30
2023-02-18T22:59:13.058Z,2.63
2023-02-18T23:01:43.119Z,2.60
2023-02-18T23:04:13.963Z,2.70
2023-02-18T23:06:44.304Z,2.83
2023-02-18T23:09:14.614Z,2.90
2023-02-18T23:11:42.915Z,3.20
2023-02-18T23:14:19.489Z,2.97
2023-02-18T23:17:05.861Z,3.23
2023-02-18T23:19:36.742Z,2.83
2023-02-18T23:22:05.251Z,2.67
2023-02-18T23:24:34.452Z,2.83
2023-02-18T23:27:02.604Z,2.57
2023-02-18T23:29:30.842Z,2.80
2023-02-18T23:31:58.772Z,2.80
2023-02-18T23:34:26.676Z,4.47
2023-02-18T23:36:55.966Z,4.20
2023-02-18T23:39:24.487Z,7.10
2023-02-18T23:41:52.922Z,10.47
2023-02-18T23:44:23.247Z,7.20
2023-02-18T23:46:52.284Z,4.60
2023-02-18T23:49:22.131Z,5.73
2023-02-18T23:51:50.333Z,5.07
2023-02-18T23:54:20.112Z,5.90
2023-02-18T23:56:48.211Z,3.63
2023-02-18T23:59:16.149Z,4.33
